Konawa, Oklahoma
Current Conditions -  °F | °C
As of 11:35 PM on Sunday 19 Oct 2014 (Local Time) from KADH Reporting Station
Scattered Clouds Scattered Clouds  
Wind Chill: 61°   Ceiling: Unl
Heat Index: 61°   Visibility: 10mi
Dew Point: 52°   Wind: 7mph
Humidity: 72%   Direction: 170°S
Pressure: 30.07"   Gusts: NA
Location:  34.96°N, 96.75°W
Report Text: KADH 200435Z AUTO 17006KT 10SM SCT120 16/11 A3007 RMK AO2
Loading
Personal Weather Stations






























Interactive Weather Map
Tropical Storm Tracking
New forecast layout! Learn more

10-Day Weather Forecast

Advertisements
Track Severe Weather on mobile